Time;durP1;ratioP1;P1;durP2;ratioP2;P2;SDS_P1;SDS_P2;PMS_P1;PMS_P2;Temp;Humidity;BMP_temperature;BMP_pressure;BME280_temperature;BME280_humidity;BME280_pressure;Samples;Min_cycle;Max_cycle;Signal;HPM_P1;HPM_P2
2022/10/06 00:00:48;;;;;;;8.60;4.30;;;;;;;11.81;86.00;99550.50;1746540;82;20991;-46
2022/10/06 00:03:15;;;;;;;11.60;4.85;;;;;;;11.80;86.26;99549.63;1746558;82;21442;-44
2022/10/06 00:05:42;;;;;;;9.10;4.00;;;;;;;11.79;86.74;99556.30;1746515;81;21011;-45
2022/10/06 00:08:08;;;;;;;8.43;3.80;;;;;;;11.80;86.37;99550.10;1746690;82;20984;-44
2022/10/06 00:10:34;;;;;;;13.93;4.12;;;;;;;11.81;86.36;99554.45;1746500;82;20981;-47
2022/10/06 00:13:00;;;;;;;5.67;4.10;;;;;;;11.74;87.35;99553.93;1746544;82;21031;-47
2022/10/06 00:15:30;;;;;;;7.10;3.95;;;;;;;11.76;87.25;99549.42;1746642;82;21411;-46
2022/10/06 00:17:57;;;;;;;9.03;4.20;;;;;;;11.75;87.16;99547.74;1746532;82;21030;-48
2022/10/06 00:20:25;;;;;;;8.73;4.00;;;;;;;11.75;86.84;99546.42;1746734;82;21464;-47
2022/10/06 00:22:51;;;;;;;5.00;3.98;;;;;;;11.75;86.88;99548.19;1746614;81;20992;-44
2022/10/06 00:25:21;;;;;;;9.45;4.33;;;;;;;11.78;86.84;99542.75;1746613;82;20983;-45
2022/10/06 00:27:50;;;;;;;10.15;4.12;;;;;;;11.79;86.48;99541.36;1746471;82;20975;-48
2022/10/06 00:30:23;;;;;;;4.55;3.80;;;;;;;11.78;86.65;99544.08;1746561;81;21019;-46
2022/10/06 00:32:59;;;;;;;9.10;3.85;;;;;;;11.77;87.08;99543.23;1746481;82;21433;-47
2022/10/06 00:35:28;;;;;;;5.00;3.75;;;;;;;11.74;87.40;99542.55;1746528;82;20999;-45
2022/10/06 00:37:54;;;;;;;7.40;3.85;;;;;;;11.74;86.84;99547.34;1746573;82;21378;-45
2022/10/06 00:40:21;;;;;;;8.10;3.55;;;;;;;11.69;87.76;99542.32;1746505;82;20991;-43
2022/10/06 00:43:00;;;;;;;5.87;3.65;;;;;;;11.71;87.57;99539.60;1746639;82;21433;-46
2022/10/06 00:45:45;;;;;;;8.00;3.47;;;;;;;11.71;87.34;99537.84;1746510;82;21030;-47
2022/10/06 00:48:21;;;;;;;5.78;4.12;;;;;;;11.70;87.44;99536.13;1746410;81;21548;-45
2022/10/06 00:50:47;;;;;;;12.27;4.40;;;;;;;11.70;87.43;99533.97;1746746;81;20995;-49
2022/10/06 00:53:15;;;;;;;5.12;3.77;;;;;;;11.70;87.53;99542.72;1746500;82;20982;-45
2022/10/06 00:55:41;;;;;;;17.23;3.80;;;;;;;11.70;87.33;99526.91;1746516;82;21000;-48
2022/10/06 00:58:10;;;;;;;5.90;3.60;;;;;;;11.71;87.23;99531.70;1746570;82;20995;-45
2022/10/06 01:00:35;;;;;;;15.28;3.90;;;;;;;11.69;87.29;99530.47;1746579;82;20987;-45
2022/10/06 01:03:14;;;;;;;5.28;3.72;;;;;;;11.64;87.83;99532.98;1746457;82;21024;-51
2022/10/06 01:05:45;;;;;;;7.28;3.37;;;;;;;11.66;87.42;99537.25;1746502;82;21031;-48
2022/10/06 01:08:12;;;;;;;10.28;3.80;;;;;;;11.66;87.49;99531.98;1745981;82;20992;-46
2022/10/06 01:10:38;;;;;;;7.07;3.70;;;;;;;11.67;87.29;99524.91;1748431;81;20964;-44
2022/10/06 01:13:05;;;;;;;4.95;3.83;;;;;;;11.65;87.47;99526.78;1748181;81;21027;-48
2022/10/06 01:15:32;;;;;;;8.88;4.72;;;;;;;11.65;87.30;99526.31;1748253;81;21030;-46
2022/10/06 01:18:12;;;;;;;;;;;;;;;11.63;87.97;99522.08;1750706;81;20980;-45
2022/10/06 01:20:41;;;;;;;8.35;3.40;;;;;;;11.62;87.80;99531.74;1748004;82;20153;-43
2022/10/06 01:23:09;;;;;;;7.78;4.10;;;;;;;11.61;87.93;99529.22;1748125;81;21460;-44
2022/10/06 01:25:36;;;;;;;8.38;3.58;;;;;;;11.62;87.79;99530.91;1748063;82;20980;-47
2022/10/06 01:28:05;;;;;;;6.25;3.35;;;;;;;11.63;87.33;99529.50;1748228;82;20984;-47
2022/10/06 01:30:41;;;;;;;7.78;3.27;;;;;;;11.63;87.45;99526.03;1748082;81;21530;-47
2022/10/06 01:33:07;;;;;;;8.13;3.92;;;;;;;11.61;87.57;99525.27;1748312;81;21513;-46
2022/10/06 01:35:33;;;;;;;5.45;3.58;;;;;;;11.63;87.61;99526.03;1748064;81;20995;-49
2022/10/06 01:37:58;;;;;;;7.62;3.20;;;;;;;11.62;87.92;99517.73;1748276;81;20956;-47
2022/10/06 01:40:27;;;;;;;9.90;4.40;;;;;;;11.65;87.45;99521.52;1748048;81;21031;-47
2022/10/06 01:42:52;;;;;;;6.65;3.58;;;;;;;11.63;88.11;99520.76;1747899;81;21474;-44
2022/10/06 01:45:18;;;;;;;8.40;3.33;;;;;;;11.65;87.24;99520.20;1748079;82;20987;-47
2022/10/06 01:47:44;;;;;;;6.80;3.42;;;;;;;11.65;87.40;99513.62;1752287;81;21082;-48
2022/10/06 01:50:09;;;;;;;6.50;3.02;;;;;;;11.66;87.05;99519.25;1761418;81;20983;-46
2022/10/06 01:52:35;;;;;;;6.10;3.83;;;;;;;11.64;87.56;99522.44;1761408;81;21049;-50
2022/10/06 01:55:02;;;;;;;5.75;3.50;;;;;;;11.62;87.64;99522.52;1761385;81;20983;-47
2022/10/06 01:57:27;;;;;;;5.87;3.42;;;;;;;11.63;87.52;99522.92;1761646;81;21516;-48
2022/10/06 01:59:53;;;;;;;4.28;3.15;;;;;;;11.65;87.34;99526.31;1761415;80;21019;-45
2022/10/06 02:02:19;;;;;;;7.05;3.20;;;;;;;11.65;87.35;99522.84;1761353;81;20952;-43
2022/10/06 02:04:45;;;;;;;4.10;3.08;;;;;;;11.65;87.35;99524.16;1761403;81;20991;-44
2022/10/06 02:07:11;;;;;;;7.83;3.30;;;;;;;11.65;87.44;99530.27;1761408;81;21078;-48
2022/10/06 02:09:36;;;;;;;6.75;3.40;;;;;;;11.64;87.50;99526.39;1761485;81;20991;-43
2022/10/06 02:12:03;;;;;;;8.53;3.70;;;;;;;11.65;87.49;99534.21;1761416;81;21046;-47
2022/10/06 02:14:30;;;;;;;9.13;3.63;;;;;;;11.64;87.72;99535.61;1761634;81;20986;-50
2022/10/06 02:16:56;;;;;;;5.67;3.58;;;;;;;11.67;87.54;99533.66;1761483;81;21632;-50
2022/10/06 02:19:22;;;;;;;5.72;3.47;;;;;;;11.69;87.46;99529.63;1761375;81;20983;-44
2022/10/06 02:21:48;;;;;;;6.53;3.15;;;;;;;11.70;87.59;99530.02;1761368;81;20987;-45
2022/10/06 02:24:13;;;;;;;6.22;3.22;;;;;;;11.69;87.87;99537.05;1761408;81;21047;-47
2022/10/06 02:26:39;;;;;;;6.45;3.30;;;;;;;11.73;87.36;99543.00;1761414;81;20964;-44
2022/10/06 02:29:05;;;;;;;5.87;3.08;;;;;;;11.74;87.34;99539.44;1761378;81;20988;-47
2022/10/06 02:31:31;;;;;;;6.70;3.10;;;;;;;11.76;87.38;99536.73;1761366;81;20975;-48
2022/10/06 02:33:57;;;;;;;7.30;3.17;;;;;;;11.74;87.52;99543.39;1761448;81;21512;-43
2022/10/06 02:36:23;;;;;;;8.73;3.00;;;;;;;11.76;87.36;99552.05;1761442;81;21469;-44
2022/10/06 02:38:49;;;;;;;7.80;2.90;;;;;;;11.76;87.46;99546.79;1761509;81;20964;-48
2022/10/06 02:43:35;;;;;;;3.33;3.02;;;;;;;11.80;87.65;99543.04;1800140;79;22499;-45
2022/10/06 02:46:05;;;;;;;7.80;3.15;;;;;;;11.76;87.40;99543.31;1761780;81;21023;-46
2022/10/06 02:48:32;;;;;;;6.78;3.30;;;;;;;11.76;87.61;99545.95;1761885;81;21540;-51
2022/10/06 02:51:02;;;;;;;3.70;2.90;;;;;;;11.77;87.22;99547.19;1761846;81;20995;-48
2022/10/06 02:53:28;;;;;;;6.42;2.90;;;;;;;11.78;87.35;99549.34;1761821;81;20956;-43
2022/10/06 02:56:06;;;;;;;7.08;3.08;;;;;;;11.79;87.21;99547.07;1761888;80;20967;-47
2022/10/06 02:58:32;;;;;;;7.70;3.35;;;;;;;11.79;87.27;99554.98;1742455;81;21014;-44
2022/10/06 03:01:05;;;;;;;5.35;3.52;;;;;;;11.79;87.07;99550.58;1761811;81;21067;-42
2022/10/06 03:03:33;;;;;;;7.20;3.37;;;;;;;11.77;87.43;99555.09;1761836;81;20995;-47
2022/10/06 03:06:22;;;;;;;6.22;3.15;;;;;;;11.77;87.47;99560.80;1761888;80;20975;-46
2022/10/06 03:08:57;;;;;;;8.68;3.00;;;;;;;11.72;87.75;99560.59;1761839;81;21496;-45
2022/10/06 03:11:30;;;;;;;4.20;3.00;;;;;;;11.76;87.52;99566.55;1762107;81;21019;-45
2022/10/06 03:13:56;;;;;;;7.15;3.40;;;;;;;11.74;87.65;99563.16;1761656;81;20995;-46
2022/10/06 03:16:25;;;;;;;5.75;3.30;;;;;;;11.78;87.33;99566.47;1761894;81;21741;-47
2022/10/06 03:18:53;;;;;;;12.15;3.92;;;;;;;11.75;87.49;99563.55;1761855;81;20980;-43
2022/10/06 03:21:22;;;;;;;4.67;3.12;;;;;;;11.79;87.21;99566.83;1761766;80;20991;-45
2022/10/06 03:23:50;;;;;;;11.90;3.90;;;;;;;11.78;86.90;99560.72;1761550;81;21043;-47
2022/10/06 03:26:20;;;;;;;9.18;3.67;;;;;;;11.79;86.90;99569.47;1760730;80;21746;-43
2022/10/06 03:28:46;;;;;;;8.78;3.50;;;;;;;11.77;86.98;99570.89;1760571;80;21043;-43
2022/10/06 03:31:13;;;;;;;6.08;3.27;;;;;;;11.76;86.90;99570.98;1761376;81;20972;-50
2022/10/06 03:33:39;;;;;;;5.03;2.83;;;;;;;11.76;86.93;99575.77;1761953;81;20960;-45
2022/10/06 03:36:13;;;;;;;8.80;3.40;;;;;;;11.77;86.75;99575.30;1761763;81;21504;-44
2022/10/06 03:38:39;;;;;;;6.90;3.25;;;;;;;11.74;87.30;99587.34;1760923;80;21022;-45
2022/10/06 03:41:09;;;;;;;7.95;3.80;;;;;;;11.71;87.68;99583.95;1761725;81;20994;-45
2022/10/06 03:43:36;;;;;;;7.05;3.33;;;;;;;11.69;88.14;99586.27;1761858;81;21164;-47
2022/10/06 03:46:03;;;;;;;6.00;3.30;;;;;;;11.69;87.69;99587.58;1762176;81;20995;-47
2022/10/06 03:48:32;;;;;;;;;;;;;;;11.67;87.96;99592.09;1764716;81;21468;-46
2022/10/06 03:51:01;;;;;;;7.12;3.47;;;;;;;11.69;88.12;99592.85;1762096;81;20104;-45
2022/10/06 03:53:29;;;;;;;7.65;3.50;;;;;;;11.69;87.73;99590.22;1761787;81;20998;-45
2022/10/06 03:56:17;;;;;;;7.50;3.52;;;;;;;11.70;87.64;99594.56;1761597;81;20995;-48
2022/10/06 03:58:48;;;;;;;8.45;3.77;;;;;;;11.68;87.90;99595.13;1761444;81;21556;-45
2022/10/06 04:01:22;;;;;;;8.68;3.60;;;;;;;11.67;87.74;99598.20;1761471;81;20991;-46
2022/10/06 04:03:48;;;;;;;9.90;4.12;;;;;;;11.68;87.67;99598.59;1761603;81;20995;-43
2022/10/06 04:06:18;;;;;;;3.85;3.30;;;;;;;11.66;88.10;99599.59;1761521;81;21496;-43
2022/10/06 04:08:46;;;;;;;4.40;3.37;;;;;;;11.62;88.56;99608.61;1761454;81;21019;-49
2022/10/06 04:11:19;;;;;;;7.85;3.87;;;;;;;11.63;87.78;99609.84;1761455;81;21042;-44
2022/10/06 04:13:47;;;;;;;6.90;3.70;;;;;;;11.63;87.79;99608.53;1761451;81;20984;-44
2022/10/06 04:16:19;;;;;;;11.33;3.40;;;;;;;11.60;87.96;99614.43;1761586;81;20963;-49
2022/10/06 04:18:51;;;;;;;6.45;3.52;;;;;;;11.57;88.28;99615.91;1761514;81;20968;-49
2022/10/06 04:21:18;;;;;;;13.68;3.83;;;;;;;11.55;88.40;99622.59;1761508;81;20987;-47
2022/10/06 04:23:44;;;;;;;6.85;3.90;;;;;;;11.53;88.78;99617.85;1761694;81;21010;-46
2022/10/06 04:26:17;;;;;;;10.00;3.75;;;;;;;11.54;88.23;99616.94;1761535;80;21475;-48
2022/10/06 04:28:44;;;;;;;14.33;3.52;;;;;;;11.55;88.21;99621.28;1761519;81;20995;-42
2022/10/06 04:31:14;;;;;;;;;;;;;;;11.54;88.76;99626.16;1764065;81;21464;-47
2022/10/06 04:33:41;;;;;;;9.85;3.87;;;;;;;11.51;89.50;99623.67;1760004;81;20437;-45
2022/10/06 04:36:10;;;;;;;9.60;4.00;;;;;;;11.52;88.49;99630.18;1761582;81;20995;-47
2022/10/06 04:38:36;;;;;;;8.10;3.67;;;;;;;11.52;88.89;99627.55;1761373;81;20991;-46
2022/10/06 04:41:12;;;;;;;5.92;3.80;;;;;;;11.49;89.36;99630.33;1761418;81;20971;-46
2022/10/06 04:43:39;;;;;;;10.53;3.87;;;;;;;11.52;88.97;99632.81;1761314;81;21438;-47
2022/10/06 04:46:05;;;;;;;7.28;3.62;;;;;;;11.51;89.21;99632.45;1761562;81;20983;-45
2022/10/06 04:48:32;;;;;;;8.40;4.10;;;;;;;11.53;89.12;99638.92;1761666;81;20995;-51
2022/10/06 04:51:05;;;;;;;7.67;4.67;;;;;;;11.51;89.24;99639.03;1761598;80;21003;-44
2022/10/06 04:53:32;;;;;;;11.75;3.92;;;;;;;11.50;89.61;99646.53;1760555;81;20987;-48
2022/10/06 04:56:01;;;;;;;9.30;4.15;;;;;;;11.48;89.83;99644.92;1761376;81;21006;-50
2022/10/06 04:58:37;;;;;;;5.15;4.15;;;;;;;11.50;89.44;99643.06;1761454;81;20986;-47
2022/10/06 05:01:06;;;;;;;8.40;3.72;;;;;;;11.49;89.54;99647.92;1760862;81;21473;-47
2022/10/06 05:03:32;;;;;;;8.28;4.40;;;;;;;11.48;89.65;99647.09;1760661;81;21029;-46
2022/10/06 05:06:05;;;;;;;8.00;4.65;;;;;;;11.46;90.12;99650.27;1761539;81;20968;-48
2022/10/06 05:08:32;;;;;;;5.92;4.22;;;;;;;11.45;89.97;99649.87;1761316;81;21052;-45
2022/10/06 05:11:00;;;;;;;8.73;4.33;;;;;;;11.48;89.73;99652.83;1761662;81;20995;-47
2022/10/06 05:13:27;;;;;;;8.08;4.70;;;;;;;11.47;89.91;99652.43;1761383;81;21026;-46
2022/10/06 05:16:00;;;;;;;13.40;5.40;;;;;;;11.48;89.74;99660.25;1761499;81;21003;-46
2022/10/06 05:18:28;;;;;;;8.08;4.40;;;;;;;11.49;89.60;99667.20;1761405;81;20964;-51
2022/10/06 05:21:02;;;;;;;9.30;4.30;;;;;;;11.52;89.09;99663.58;1761374;81;21598;-48
2022/10/06 05:23:31;;;;;;;7.08;4.25;;;;;;;11.50;89.75;99664.97;1761362;81;20987;-49
2022/10/06 05:25:58;;;;;;;10.60;4.58;;;;;;;11.52;89.57;99671.48;1761363;81;20972;-44
2022/10/06 05:28:27;;;;;;;10.35;4.55;;;;;;;11.52;89.83;99668.84;1761463;81;20991;-48
2022/10/06 05:31:03;;;;;;;10.18;4.55;;;;;;;11.53;90.07;99671.84;1761503;81;21034;-45
2022/10/06 05:33:33;;;;;;;11.20;4.60;;;;;;;11.55;89.66;99667.38;1761407;81;21556;-51
2022/10/06 05:36:01;;;;;;;8.83;4.47;;;;;;;11.60;89.42;99688.19;1761359;81;21503;-50
2022/10/06 05:38:28;;;;;;;9.45;4.62;;;;;;;11.64;89.67;99685.77;1761394;81;20959;-42
2022/10/06 05:41:16;;;;;;;10.98;5.55;;;;;;;11.68;89.94;99690.80;1761475;81;21520;-43
2022/10/06 05:43:43;;;;;;;8.83;4.95;;;;;;;11.73;90.05;99690.53;1761237;81;21548;-48
2022/10/06 05:46:18;;;;;;;11.38;5.78;;;;;;;11.80;89.65;99702.45;1761396;81;21516;-49
2022/10/06 05:48:48;;;;;;;15.72;5.17;;;;;;;11.85;89.91;99703.06;1761257;81;20991;-47
2022/10/06 05:51:14;;;;;;;11.88;5.55;;;;;;;11.90;89.73;99703.70;1761350;81;21591;-49
2022/10/06 05:53:41;;;;;;;7.75;5.40;;;;;;;11.98;89.76;99714.30;1761483;80;21077;-49
2022/10/06 05:56:16;;;;;;;7.70;4.75;;;;;;;12.02;89.50;99723.25;1761378;81;20991;-46
2022/10/06 05:58:45;;;;;;;7.25;4.58;;;;;;;12.10;89.08;99725.02;1761336;81;21606;-49
2022/10/06 06:01:25;;;;;;;10.15;4.67;;;;;;;12.16;89.22;99722.51;1761326;81;21491;-47
2022/10/06 06:04:00;;;;;;;11.40;5.12;;;;;;;12.23;88.84;99733.58;1761304;81;21457;-44
2022/10/06 06:06:32;;;;;;;9.08;4.78;;;;;;;12.29;88.89;99737.19;1761397;81;20999;-51
2022/10/06 06:09:08;;;;;;;12.80;6.22;;;;;;;12.35;88.65;99741.27;1761334;81;21046;-50
2022/10/06 06:11:38;;;;;;;13.78;7.08;;;;;;;12.38;88.69;99743.27;1761350;81;21046;-46
2022/10/06 06:14:08;;;;;;;15.53;6.47;;;;;;;12.44;88.52;99746.03;1761288;81;20971;-43
2022/10/06 06:16:35;;;;;;;14.13;6.78;;;;;;;12.48;88.60;99755.49;1761288;81;21034;-44
2022/10/06 06:19:02;;;;;;;10.00;5.67;;;;;;;12.51;88.45;99757.09;1761323;81;21003;-51
2022/10/06 06:21:28;;;;;;;10.48;5.10;;;;;;;12.55;88.41;99759.49;1761296;81;21488;-49
2022/10/06 06:23:55;;;;;;;18.73;5.47;;;;;;;12.58;88.36;99760.62;1761337;81;21046;-51
2022/10/06 06:26:25;;;;;;;13.78;5.17;;;;;;;12.62;88.37;99770.05;1761345;81;20994;-50
2022/10/06 06:28:53;;;;;;;8.25;4.15;;;;;;;12.70;88.31;99767.45;1761254;80;20991;-44
2022/10/06 06:31:25;;;;;;;10.63;4.60;;;;;;;12.74;88.20;99771.64;1761423;81;20991;-48
2022/10/06 06:33:54;;;;;;;13.25;5.35;;;;;;;12.79;88.00;99781.00;1761350;81;21046;-44
2022/10/06 06:36:39;;;;;;;15.93;6.25;;;;;;;12.83;87.88;99783.00;1761309;81;21011;-48
2022/10/06 06:39:10;;;;;;;17.45;7.35;;;;;;;12.85;87.73;99788.55;1761177;81;20951;-49
2022/10/06 06:41:39;;;;;;;12.13;5.87;;;;;;;12.89;87.88;99791.88;1761356;81;20995;-43
2022/10/06 06:44:07;;;;;;;12.60;5.33;;;;;;;12.94;87.82;99801.70;1761201;81;21073;-47
2022/10/06 06:46:33;;;;;;;;;;;;;;;12.96;87.94;99803.79;1763982;80;20994;-49
2022/10/06 06:49:03;;;;;;;14.43;4.97;;;;;;;13.02;87.72;99798.17;1761587;81;20112;-52
2022/10/06 06:51:29;;;;;;;12.82;4.97;;;;;;;13.04;87.73;99791.46;1761270;81;20995;-44
2022/10/06 06:53:57;;;;;;;7.20;4.22;;;;;;;13.11;87.64;99798.57;1761554;81;20972;-44
2022/10/06 06:56:22;;;;;;;14.70;4.80;;;;;;;13.13;87.87;99798.84;1761162;81;21014;-54
2022/10/06 06:58:49;;;;;;;17.17;5.25;;;;;;;13.21;87.71;99799.75;1761323;81;20975;-47
2022/10/06 07:01:18;;;;;;;16.12;5.70;;;;;;;13.23;87.75;99800.03;1761317;81;20995;-51
2022/10/06 07:03:48;;;;;;;6.95;4.72;;;;;;;13.34;87.53;99804.72;1761013;81;21324;-49
2022/10/06 07:06:15;;;;;;;12.43;5.37;;;;;;;13.42;87.40;99810.42;1760966;81;21055;-51
2022/10/06 07:08:47;;;;;;;8.93;4.50;;;;;;;13.50;87.37;99809.96;1761606;81;21012;-46
2022/10/06 07:11:19;;;;;;;8.75;4.62;;;;;;;13.52;87.47;99805.43;1761413;81;21513;-51
2022/10/06 07:13:47;;;;;;;8.40;4.20;;;;;;;13.65;87.07;99821.89;1761420;81;20971;-52
2022/10/06 07:27:23;;;;;;;8.33;4.15;;;;;;;14.00;86.49;99829.84;1761326;81;20970;-46
2022/10/06 07:29:53;;;;;;;9.40;4.20;;;;;;;14.07;86.35;99828.16;1761604;81;21608;-53
2022/10/06 07:32:26;;;;;;;11.85;4.67;;;;;;;14.14;86.32;99831.66;1761543;80;20995;-49
2022/10/06 07:34:52;;;;;;;13.08;6.00;;;;;;;14.20;86.20;99829.94;1761562;81;21540;-49
2022/10/06 07:37:18;;;;;;;14.85;6.22;;;;;;;14.28;85.88;99826.84;1761796;81;20995;-51
2022/10/06 07:39:46;;;;;;;13.53;5.70;;;;;;;14.35;85.75;99831.26;1761441;81;20999;-47
2022/10/06 07:42:13;;;;;;;11.85;4.58;;;;;;;14.42;85.42;99829.94;1761397;81;21492;-53
2022/10/06 07:44:40;;;;;;;9.63;3.83;;;;;;;14.49;85.43;99829.92;1750192;81;21059;-49
2022/10/06 07:47:07;;;;;;;12.15;4.30;;;;;;;14.59;85.43;99832.41;1748294;81;20968;-51
2022/10/06 07:49:34;;;;;;;11.83;4.37;;;;;;;14.75;85.42;99840.69;1747490;81;21532;-47
2022/10/06 07:51:59;;;;;;;8.67;3.57;;;;;;;14.86;85.21;99842.20;1748342;81;20998;-47
2022/10/06 07:54:26;;;;;;;7.47;3.33;;;;;;;14.98;84.98;99845.35;1748027;81;20984;-52
2022/10/06 07:56:52;;;;;;;8.15;3.85;;;;;;;15.06;84.54;99844.01;1748097;82;20999;-50
2022/10/06 07:59:18;;;;;;;14.68;3.65;;;;;;;15.14;84.29;99848.34;1748330;82;21026;-49
2022/10/06 08:01:45;;;;;;;7.97;3.70;;;;;;;15.23;83.93;99853.04;1748084;81;21031;-50
2022/10/06 08:04:12;;;;;;;6.10;3.70;;;;;;;15.29;83.58;99849.97;1748122;82;21019;-47
2022/10/06 08:06:40;;;;;;;4.92;3.08;;;;;;;15.34;83.26;99859.80;1747653;81;21074;-49
2022/10/06 08:09:06;;;;;;;7.70;3.20;;;;;;;15.36;82.81;99863.19;1743708;82;21475;-42
2022/10/06 08:11:32;;;;;;;6.28;3.92;;;;;;;15.35;82.78;99861.52;1739401;82;21020;-45
2022/10/06 08:13:59;;;;;;;6.40;3.62;;;;;;;15.38;83.25;99860.93;1738331;82;21623;-43
2022/10/06 08:16:28;;;;;;;7.80;3.98;;;;;;;15.42;83.24;99862.42;1737956;82;21039;-43
2022/10/06 08:18:58;;;;;;;6.58;4.05;;;;;;;15.49;82.84;99868.53;1739259;82;21032;-40
2022/10/06 08:21:30;;;;;;;8.83;3.12;;;;;;;15.64;82.73;99879.91;1739469;82;21046;-42
2022/10/06 08:23:58;;;;;;;9.20;3.70;;;;;;;15.65;82.47;99880.29;1739391;82;21010;-41
2022/10/06 08:26:26;;;;;;;5.45;2.70;;;;;;;15.71;82.18;99871.91;1739608;82;20995;-40
2022/10/06 08:28:56;;;;;;;4.17;2.90;;;;;;;15.76;81.64;99881.41;1739519;82;21000;-43
2022/10/06 08:31:22;;;;;;;7.65;3.22;;;;;;;15.79;81.25;99885.16;1739212;82;20980;-44
2022/10/06 08:33:55;;;;;;;7.05;2.70;;;;;;;15.95;81.82;99892.45;1741241;81;20967;-45
2022/10/06 08:36:23;;;;;;;10.15;3.08;;;;;;;16.05;81.29;99894.86;1746469;82;20987;-49
2022/10/06 08:38:49;;;;;;;7.92;2.87;;;;;;;16.19;80.86;99887.75;1753753;80;21007;-44
2022/10/06 08:41:44;;;;;;;10.05;3.40;;;;;;;16.30;80.81;99891.86;1763773;80;20996;-48
2022/10/06 08:44:29;;;;;;;6.03;2.77;;;;;;;16.37;80.22;99892.25;1754535;80;21489;-48
2022/10/06 08:47:02;;;;;;;5.37;2.60;;;;;;;16.45;79.71;99897.41;1736805;81;20935;-46
2022/10/06 08:49:39;;;;;;;5.10;2.65;;;;;;;16.55;79.78;99896.27;1760977;81;21019;-42
2022/10/06 08:52:46;;;;;;;3.92;2.60;;;;;;;16.59;78.52;99902.22;1760305;81;20939;-48
2022/10/06 08:55:43;;;;;;;5.37;2.50;;;;;;;16.68;78.24;99901.10;1739102;82;21015;-46
2022/10/06 08:58:18;;;;;;;;;;;;;;;16.86;78.52;99910.06;1762392;81;21489;-44
2022/10/06 09:00:44;;;;;;;3.65;2.52;;;;;;;16.97;78.20;99907.50;1761295;81;20112;-45
2022/10/06 09:03:23;;;;;;;4.60;2.30;;;;;;;17.11;78.35;99913.62;1760731;81;20946;-44
2022/10/06 09:06:36;;;;;;;3.77;2.30;;;;;;;17.20;76.40;99919.10;1760609;81;20959;-46
2022/10/06 09:09:26;;;;;;;3.58;2.52;;;;;;;17.39;77.06;99929.71;1737418;82;20942;-47
2022/10/06 09:12:05;;;;;;;6.78;3.10;;;;;;;17.70;76.18;99924.78;1748764;81;20936;-46
2022/10/06 09:14:43;;;;;;;3.45;2.40;;;;;;;17.80;75.57;99925.30;1761288;81;20951;-44
2022/10/06 09:17:14;;;;;;;4.78;2.22;;;;;;;17.89;75.93;99935.77;1760914;81;20987;-44
2022/10/06 09:19:48;;;;;;;3.92;2.45;;;;;;;17.89;75.68;99941.58;1760536;81;20991;-50
2022/10/06 09:22:20;;;;;;;4.58;2.05;;;;;;;17.80;75.33;99941.75;1760916;81;21440;-47
2022/10/06 09:24:49;;;;;;;11.50;2.22;;;;;;;17.72;75.24;99944.12;1760232;81;21084;-46
2022/10/06 09:27:23;;;;;;;2.95;1.92;;;;;;;17.67;75.22;99943.16;1761211;81;20959;-47
2022/10/06 09:29:50;;;;;;;3.85;2.17;;;;;;;17.56;74.74;99948.43;1761421;81;20955;-46
2022/10/06 09:32:19;;;;;;;4.37;2.12;;;;;;;17.57;75.35;99950.11;1761469;81;20930;-46
2022/10/06 09:34:54;;;;;;;4.83;2.65;;;;;;;17.50;74.72;99964.36;1761290;81;21484;-44
2022/10/06 09:37:22;;;;;;;2.50;2.30;;;;;;;17.45;75.32;99970.48;1761217;81;20932;-45
2022/10/06 09:39:49;;;;;;;;;;;;;;;17.39;75.66;99970.46;1763037;81;21034;-45
2022/10/06 09:42:28;;;;;;;6.00;2.25;;;;;;;17.34;75.66;99978.41;1760942;81;20114;-48
2022/10/06 09:45:17;;;;;;;3.00;2.25;;;;;;;17.25;75.74;99979.42;1720717;82;20991;-47
2022/10/06 09:47:44;;;;;;;4.75;2.70;;;;;;;17.24;75.70;99984.36;1743318;81;20975;-46
2022/10/06 09:50:22;;;;;;;4.17;2.50;;;;;;;17.32;75.85;99986.95;1746919;81;21030;-49
2022/10/06 09:53:09;;;;;;;2.55;2.33;;;;;;;17.29;75.82;99984.53;1746216;82;21465;-42
2022/10/06 09:55:46;;;;;;;5.10;2.92;;;;;;;17.24;75.99;99987.02;1747945;82;20936;-48
2022/10/06 09:58:22;;;;;;;8.93;5.17;;;;;;;17.25;76.08;99994.05;1748116;81;20988;-46
2022/10/06 10:00:55;;;;;;;14.65;5.70;;;;;;;17.16;76.64;99995.20;1741093;81;20959;-50
2022/10/06 10:03:24;;;;;;;5.37;3.22;;;;;;;17.19;76.71;99997.16;1744751;81;20972;-49
2022/10/06 10:05:55;;;;;;;4.92;3.25;;;;;;;17.18;76.85;100007.41;1743563;82;20936;-48
2022/10/06 10:08:31;;;;;;;7.62;3.05;;;;;;;17.06;77.37;100001.62;1747702;82;21034;-43
2022/10/06 10:14:16;;;;;;;7.58;3.00;;;;;;;17.11;77.59;100009.28;1731449;82;21437;-48
2022/10/06 10:16:43;;;;;;;7.87;3.27;;;;;;;17.14;77.68;100011.24;1746695;81;20990;-48
2022/10/06 10:19:32;;;;;;;7.20;3.40;;;;;;;17.16;78.10;100017.30;1745844;81;20925;-51
2022/10/06 10:21:58;;;;;;;5.95;3.25;;;;;;;17.24;77.53;100012.27;1744809;81;20952;-47
2022/10/06 10:25:04;;;;;;;5.65;3.12;;;;;;;17.32;76.75;100021.05;1746588;81;20960;-48
2022/10/06 10:27:54;;;;;;;4.97;3.00;;;;;;;17.48;76.92;100022.09;1727704;82;21484;-49
2022/10/06 10:30:22;;;;;;;6.50;3.00;;;;;;;17.63;75.97;100026.31;1745873;82;20964;-49
2022/10/06 10:33:09;;;;;;;6.97;3.37;;;;;;;17.81;75.99;100033.92;1740625;82;21473;-48
2022/10/06 10:35:44;;;;;;;6.47;3.50;;;;;;;17.89;75.62;100038.21;1746346;82;20979;-47
2022/10/06 10:38:20;;;;;;;6.78;3.22;;;;;;;17.91;75.25;100036.28;1742011;82;20992;-46
2022/10/06 10:40:54;;;;;;;10.85;3.70;;;;;;;17.98;75.16;100029.55;1746477;82;20960;-46
2022/10/06 10:43:46;;;;;;;9.00;3.47;;;;;;;18.11;74.76;100031.30;1741956;82;21002;-45
2022/10/06 10:46:32;;;;;;;12.63;3.40;;;;;;;18.24;74.72;100040.05;1747538;82;20972;-44
2022/10/06 10:49:12;;;;;;;5.10;3.30;;;;;;;18.17;73.83;100041.01;1722978;82;20995;-48
2022/10/06 10:51:43;;;;;;;19.73;11.53;;;;;;;18.21;73.95;100044.29;1743642;82;20968;-47
2022/10/06 10:54:35;;;;;;;5.25;4.40;;;;;;;18.13;73.76;100037.34;1741142;81;20979;-48
2022/10/06 10:57:02;;;;;;;10.15;3.90;;;;;;;18.10;73.57;100053.08;1722477;82;21077;-46
2022/10/06 10:59:36;;;;;;;8.87;3.70;;;;;;;18.10;74.09;100048.21;1743377;82;21353;-45
2022/10/06 11:02:16;;;;;;;9.15;3.35;;;;;;;18.10;74.09;100048.21;1740276;82;21074;-51
2022/10/06 11:04:46;;;;;;;6.35;3.87;;;;;;;18.02;73.86;100042.98;1745475;82;21019;-49
2022/10/06 11:07:26;;;;;;;8.63;3.75;;;;;;;17.96;73.93;100041.27;1747000;82;20944;-43
2022/10/06 11:09:58;;;;;;;7.40;3.75;;;;;;;17.77;74.34;100039.08;1743139;82;20939;-44
2022/10/06 11:12:38;;;;;;;7.30;3.85;;;;;;;17.69;74.81;100038.80;1744708;82;20963;-45
2022/10/06 11:15:24;;;;;;;11.38;3.67;;;;;;;17.72;74.88;100041.22;1723923;82;20928;-47
2022/10/06 11:17:53;;;;;;;7.15;3.65;;;;;;;17.73;75.20;100050.42;1707107;82;21410;-49
2022/10/06 11:20:38;;;;;;;4.80;3.33;;;;;;;17.71;75.26;100057.67;1741345;81;20960;-44
2022/10/06 11:23:32;;;;;;;6.90;3.20;;;;;;;17.71;75.47;100063.48;1723912;82;20961;-49
2022/10/06 11:26:15;;;;;;;8.93;3.33;;;;;;;17.70;75.59;100067.95;1743557;82;20992;-45
2022/10/06 11:28:49;;;;;;;3.85;2.85;;;;;;;17.74;75.38;100061.94;1746151;82;21496;-48
2022/10/06 11:31:50;;;;;;;5.28;3.20;;;;;;;17.66;75.60;100065.13;1746989;82;21493;-47
2022/10/06 11:34:16;;;;;;;8.68;5.67;;;;;;;17.76;75.52;100062.17;1741624;81;20964;-45
2022/10/06 11:36:59;;;;;;;10.43;5.22;;;;;;;17.92;75.61;100063.27;1746673;82;20921;-47
2022/10/06 11:39:53;;;;;;;7.10;3.70;;;;;;;18.02;74.76;100065.60;1742737;82;21414;-48
2022/10/06 11:42:30;;;;;;;6.35;3.37;;;;;;;18.34;75.09;100066.35;1741621;81;20968;-46
2022/10/06 11:45:08;;;;;;;9.33;3.62;;;;;;;18.63;74.21;100067.29;1729883;81;21473;-49
2022/10/06 11:47:54;;;;;;;7.92;3.65;;;;;;;18.64;73.08;100074.30;1760939;81;20947;-51
2022/10/06 11:50:36;;;;;;;7.85;4.03;;;;;;;18.67;73.00;100076.73;1750516;81;20986;-47
2022/10/06 11:53:04;;;;;;;8.33;3.98;;;;;;;18.74;73.46;100083.78;1738719;81;20979;-47
2022/10/06 11:55:31;;;;;;;5.65;3.17;;;;;;;18.72;72.88;100089.23;1761362;80;20960;-50
2022/10/06 11:58:12;;;;;;;9.95;3.58;;;;;;;18.49;71.42;100085.64;1761466;81;21003;-47
2022/10/06 12:00:42;;;;;;;9.43;3.58;;;;;;;18.42;72.35;100089.24;1760927;81;20970;-44
2022/10/06 12:03:31;;;;;;;8.23;3.35;;;;;;;18.35;72.41;100080.50;1757774;81;20936;-50
2022/10/06 12:05:57;;;;;;;7.42;3.33;;;;;;;18.31;72.23;100083.04;1760371;81;21014;-49
2022/10/06 12:08:38;;;;;;;5.20;2.80;;;;;;;18.25;72.14;100085.69;1760997;81;20964;-49